Terminal Aerodrome Forecast
Issued by NWS North Platte, NE

Home | Current Version | Previous Version | Text Only | Print | Product List | Glossary On
Versions: 1 2 3 4 5 6 7 8 9 10 11 12 13 14 15 16 17 18
000
FTUS43 KLBF 301700 RRA
TAFVTN
TAF
KVTN 301741Z 3018/3118 21013G20KT P6SM BKN200
     FM302300 24005KT P6SM SCT100 OVC200
     FM311000 02006KT 5SM BR SCT008 OVC100
     FM311500 04006KT P6SM BKN008 OVC100=

USA.gov is the U.S. government's official web portal to all federal, state and local government web resources and services.